« Back
NWS Peachtree City, Ga » Text Product » ATL Terminal Aerodrome Forecast


Printer-friendly Version
Current Version              Previous Versions:   1  2  3  4  5  6  7  8  9  

Terminal Aerodrome Forecast

757
FTUS42 KFFC 180500
TAFATL
TAF
KATL 180520Z 1806/1912 10010KT P6SM BKN040
     FM181000 07012KT P6SM -RA OVC025
     FM181500 06014G22KT 5SM SHRA OVC015
     FM182200 05014G24KT 4SM SHRA BR OVC008
     FM190200 05018G28KT 2SM SHRA BR OVC008=

USA.gov is the U.S. government's official web portal to all federal, state and local government web resources and services.